Time;durP1;ratioP1;P1;durP2;ratioP2;P2;SDS_P1;SDS_P2;PMS_P1;PMS_P2;Temp;Humidity;BMP_temperature;BMP_pressure;BME280_temperature;BME280_humidity;BME280_pressure;Samples;Min_cycle;Max_cycle;Signal;HPM_P1;HPM_P2
2022/10/22 00:01:01;;;;;;;7.32;0.93;;;13.50;99.90;;;;;;5032078;28;20458;-74
2022/10/22 00:03:27;;;;;;;3.33;0.93;;;13.40;99.90;;;;;;5033145;28;20025;-74
2022/10/22 00:05:52;;;;;;;3.30;0.45;;;13.40;99.90;;;;;;5033112;28;20112;-74
2022/10/22 00:08:18;;;;;;;1.67;0.60;;;13.40;99.90;;;;;;5033266;28;20034;-74
2022/10/22 00:10:43;;;;;;;2.92;0.52;;;13.40;99.90;;;;;;5031942;28;20032;-74
2022/10/22 00:13:10;;;;;;;6.38;0.65;;;13.30;99.90;;;;;;5033134;28;20074;-74
2022/10/22 00:15:35;;;;;;;4.82;1.77;;;13.40;99.90;;;;;;5033070;28;20484;-74
2022/10/22 00:18:01;;;;;;;4.88;1.02;;;13.40;99.90;;;;;;5031871;28;20020;-74
2022/10/22 00:20:27;;;;;;;4.38;1.60;;;13.40;99.90;;;;;;5033099;28;20026;-74
2022/10/22 00:22:52;;;;;;;4.72;1.23;;;13.40;99.90;;;;;;5033043;28;20061;-74
2022/10/22 00:25:18;;;;;;;5.72;0.88;;;13.50;99.90;;;;;;5033127;28;20037;-74
2022/10/22 00:27:43;;;;;;;6.70;0.80;;;13.50;99.90;;;;;;5033061;28;20040;-75
2022/10/22 00:30:09;;;;;;;2.78;1.27;;;13.50;99.90;;;;;;5033051;28;20034;-75
2022/10/22 00:32:35;;;;;;;1.55;0.45;;;13.50;99.90;;;;;;5033277;28;20029;-75
2022/10/22 00:35:01;;;;;;;3.83;0.85;;;13.50;99.90;;;;;;5033088;28;20484;-75
2022/10/22 00:37:26;;;;;;;3.40;0.75;;;13.50;99.90;;;;;;5031597;28;20411;-75
2022/10/22 00:39:52;;;;;;;7.95;0.93;;;13.60;99.90;;;;;;5031698;28;20053;-75
2022/10/22 00:42:21;;;;;;;4.93;1.08;;;13.60;99.90;;;;;;5032885;28;20049;-75
2022/10/22 00:45:05;;;;;;;6.05;0.88;;;13.60;99.90;;;;;;5032836;28;20026;-75
2022/10/22 00:47:45;;;;;;;10.80;1.10;;;13.70;99.90;;;;;;5033118;28;20030;-75
2022/10/22 00:50:28;;;;;;;5.88;1.27;;;13.60;99.90;;;;;;5032832;28;20095;-75
2022/10/22 00:52:55;;;;;;;4.57;1.10;;;13.60;99.90;;;;;;5031565;28;20116;-75
2022/10/22 00:55:22;;;;;;;6.40;0.98;;;13.60;99.90;;;;;;5032882;28;20053;-75
2022/10/22 00:57:48;;;;;;;4.25;1.00;;;13.60;99.90;;;;;;5033346;28;20034;-75
2022/10/22 01:00:14;;;;;;;1.27;0.75;;;13.60;99.90;;;;;;5032740;28;20025;-75
2022/10/22 01:02:39;;;;;;;3.13;0.60;;;13.50;99.90;;;;;;5031350;28;20167;-74
2022/10/22 01:05:06;;;;;;;4.43;0.60;;;13.50;99.90;;;;;;5031501;28;20071;-75
2022/10/22 01:07:40;;;;;;;3.80;0.80;;;13.50;99.90;;;;;;5031436;28;20021;-74
2022/10/22 01:10:28;;;;;;;3.40;0.57;;;13.50;99.90;;;;;;5032621;28;20071;-75
2022/10/22 01:13:02;;;;;;;2.70;0.57;;;13.50;99.90;;;;;;5032593;28;20481;-74
2022/10/22 01:15:32;;;;;;;2.53;0.52;;;13.50;99.90;;;;;;5033197;28;20030;-75
2022/10/22 01:18:16;;;;;;;4.47;0.80;;;13.40;99.90;;;;;;5036208;28;20017;-74
2022/10/22 01:20:55;;;;;;;6.05;0.75;;;13.40;99.90;;;;;;5036103;28;20116;-74
2022/10/22 01:23:49;;;;;;;2.85;0.95;;;13.50;99.90;;;;;;5036108;28;20026;-75
2022/10/22 01:26:42;;;;;;;1.67;0.65;;;13.40;99.90;;;;;;5036120;28;20466;-75
2022/10/22 01:29:17;;;;;;;5.15;0.90;;;13.40;99.90;;;;;;5035938;28;20071;-75
2022/10/22 01:31:55;;;;;;;5.28;0.93;;;13.40;99.90;;;;;;5036062;28;20068;-75
2022/10/22 01:34:22;;;;;;;7.30;0.73;;;13.40;99.90;;;;;;5035947;28;20021;-75
2022/10/22 01:36:51;;;;;;;3.50;0.52;;;13.50;99.90;;;;;;5034633;28;20124;-74
2022/10/22 01:39:19;;;;;;;7.80;0.90;;;13.50;99.90;;;;;;5035787;28;20021;-74
2022/10/22 01:41:45;;;;;;;5.28;1.23;;;14.00;99.90;;;;;;5034507;28;20388;-75
2022/10/22 01:44:22;;;;;;;3.28;0.95;;;13.50;99.90;;;;;;5036016;28;20022;-75
2022/10/22 01:46:55;;;;;;;9.27;1.20;;;13.50;99.90;;;;;;5034670;28;20420;-74
2022/10/22 01:49:38;;;;;;;7.32;1.60;;;13.60;99.90;;;;;;5036442;28;20025;-74
2022/10/22 01:52:42;;;;;;;4.47;0.77;;;13.60;99.90;;;;;;5036246;28;20079;-74
2022/10/22 01:55:34;;;;;;;2.53;0.75;;;13.60;99.90;;;;;;5035862;28;20063;-74
2022/10/22 01:58:17;;;;;;;6.82;1.15;;;13.60;99.90;;;;;;5034516;28;20040;-75
2022/10/22 02:00:49;;;;;;;4.90;0.73;;;13.50;99.90;;;;;;5036210;28;20018;-74
2022/10/22 02:03:24;;;;;;;8.75;1.25;;;13.50;99.90;;;;;;5034419;28;20076;-75
2022/10/22 02:05:59;;;;;;;5.50;0.57;;;13.60;99.90;;;;;;5035638;28;20033;-75
2022/10/22 02:08:29;;;;;;;4.15;0.75;;;13.50;99.90;;;;;;5034085;28;20029;-75
2022/10/22 02:10:57;;;;;;;7.75;1.20;;;13.50;99.90;;;;;;5034285;28;20507;-75
2022/10/22 02:13:47;;;;;;;5.63;0.93;;;13.50;99.90;;;;;;5035124;28;20022;-74
2022/10/22 02:16:17;;;;;;;4.97;0.50;;;13.50;99.90;;;;;;5035063;28;20113;-75
2022/10/22 02:18:45;;;;;;;12.23;2.05;;;13.40;99.90;;;;;;5036006;28;20053;-75
2022/10/22 02:21:11;;;;;;;7.18;0.80;;;13.40;99.90;;;;;;5033784;28;20036;-75
2022/10/22 02:23:37;;;;;;;3.63;0.75;;;13.40;99.90;;;;;;5034963;28;20108;-75
2022/10/22 02:26:13;;;;;;;1.92;1.02;;;13.30;99.90;;;;;;5034953;28;20029;-75
2022/10/22 02:28:49;;;;;;;3.40;0.60;;;13.30;99.90;;;;;;5033569;28;20125;-75
2022/10/22 02:31:21;;;;;;;6.45;0.68;;;13.20;99.90;;;;;;5033591;28;20053;-75
2022/10/22 02:33:50;;;;;;;7.57;1.55;;;13.20;99.90;;;;;;5034800;28;20487;-75
2022/10/22 02:36:17;;;;;;;7.70;0.77;;;13.20;99.90;;;;;;5034599;28;20026;-74
2022/10/22 02:38:46;;;;;;;3.88;0.90;;;13.20;99.90;;;;;;5033554;28;20061;-74
2022/10/22 02:41:11;;;;;;;4.18;0.60;;;13.20;99.90;;;;;;5034770;28;20021;-74
2022/10/22 02:43:47;;;;;;;5.68;0.88;;;13.20;99.90;;;;;;5035095;28;20475;-75
2022/10/22 02:46:13;;;;;;;7.97;0.73;;;13.20;99.90;;;;;;5035177;28;20021;-74
2022/10/22 02:48:38;;;;;;;4.70;0.70;;;13.20;99.90;;;;;;5034411;28;20497;-74
2022/10/22 02:51:04;;;;;;;4.25;0.47;;;13.60;99.90;;;;;;5034594;28;20029;-74
2022/10/22 02:53:29;;;;;;;2.08;0.57;;;13.10;99.90;;;;;;5034402;28;20025;-75
2022/10/22 02:55:55;;;;;;;5.15;0.77;;;13.10;99.90;;;;;;5034374;28;20033;-75
2022/10/22 02:58:20;;;;;;;6.03;0.50;;;13.80;99.90;;;;;;5034378;28;20030;-75
2022/10/22 03:00:47;;;;;;;4.88;0.88;;;13.00;99.90;;;;;;5032995;28;20025;-75
2022/10/22 03:03:13;;;;;;;7.55;1.08;;;13.10;99.90;;;;;;5034132;28;20028;-75
2022/10/22 03:05:38;;;;;;;3.30;0.60;;;13.10;99.90;;;;;;5034202;28;20057;-75
2022/10/22 03:08:07;;;;;;;4.28;0.80;;;13.10;99.90;;;;;;5032889;28;20026;-75
2022/10/22 03:10:32;;;;;;;3.17;0.57;;;16.70;99.90;;;;;;5034160;28;20416;-74
2022/10/22 03:12:58;;;;;;;8.93;1.27;;;13.10;99.90;;;;;;5033984;28;20113;-74
2022/10/22 03:15:24;;;;;;;5.97;0.65;;;13.10;99.90;;;;;;5034093;28;20022;-74
2022/10/22 03:17:49;;;;;;;4.05;0.60;;;13.00;99.90;;;;;;5033839;28;20030;-75
2022/10/22 03:20:15;;;;;;;7.65;0.80;;;13.00;99.90;;;;;;5032677;28;20021;-74
2022/10/22 03:22:42;;;;;;;7.32;0.98;;;13.00;99.90;;;;;;5034216;28;20018;-74
2022/10/22 03:25:12;;;;;;;4.60;0.90;;;13.00;99.90;;;;;;5034434;28;20048;-74
2022/10/22 03:27:39;;;;;;;3.08;0.77;;;12.90;99.90;;;;;;5032495;28;20486;-74
2022/10/22 03:30:06;;;;;;;4.38;0.68;;;12.90;99.90;;;;;;5034267;28;20377;-74
2022/10/22 03:32:32;;;;;;;8.15;0.77;;;12.90;99.90;;;;;;5034117;28;20032;-74
2022/10/22 03:34:57;;;;;;;6.25;1.25;;;12.80;99.90;;;;;;5033784;28;20496;-74
2022/10/22 03:37:25;;;;;;;6.18;0.63;;;12.80;99.90;;;;;;5033639;28;20017;-74
2022/10/22 03:39:51;;;;;;;9.38;1.90;;;12.80;99.90;;;;;;5033175;28;20028;-74
2022/10/22 03:42:17;;;;;;;2.50;0.52;;;12.70;99.90;;;;;;5033536;28;20029;-75
2022/10/22 03:44:42;;;;;;;14.18;1.30;;;12.70;99.90;;;;;;5033585;28;20080;-75
2022/10/22 03:47:08;;;;;;;5.22;0.98;;;12.70;99.90;;;;;;5032083;28;20435;-75
2022/10/22 03:49:34;;;;;;;5.10;1.38;;;12.70;99.90;;;;;;5033547;28;20033;-75
2022/10/22 03:52:18;;;;;;;1.90;0.88;;;12.60;99.90;;;;;;5033304;28;20108;-74
2022/10/22 03:54:43;;;;;;;3.65;0.82;;;12.60;99.90;;;;;;5033523;28;20029;-74
2022/10/22 03:57:10;;;;;;;3.80;1.40;;;12.60;99.90;;;;;;5033249;28;20546;-74
2022/10/22 03:59:41;;;;;;;3.00;0.60;;;12.60;99.90;;;;;;5033410;28;20021;-74
2022/10/22 04:02:10;;;;;;;5.60;1.10;;;12.60;99.90;;;;;;5033215;28;20124;-74
2022/10/22 04:04:36;;;;;;;;;;;12.60;99.90;;;;;;5033624;28;20025;-74
2022/10/22 04:07:02;;;;;;;4.60;1.08;;;12.60;99.90;;;;;;5033777;28;19912;-74
2022/10/22 04:09:30;;;;;;;8.55;1.00;;;12.60;99.90;;;;;;5033202;28;20025;-75
2022/10/22 04:11:56;;;;;;;3.85;1.10;;;;;;;;;;5031830;28;20021;-75
2022/10/22 04:14:22;;;;;;;5.07;1.13;;;12.50;99.90;;;;;;5031857;28;20396;-75
2022/10/22 04:16:47;;;;;;;4.45;0.57;;;12.50;99.90;;;;;;5033223;28;20104;-75
2022/10/22 04:19:13;;;;;;;14.85;1.33;;;12.60;99.90;;;;;;5031894;28;20022;-75
2022/10/22 04:21:39;;;;;;;6.68;1.60;;;12.60;99.90;;;;;;5033194;28;20484;-74
2022/10/22 04:24:04;;;;;;;2.78;1.10;;;12.60;99.90;;;;;;5033054;28;20021;-74
2022/10/22 04:26:30;;;;;;;3.92;1.00;;;12.60;99.90;;;;;;5033133;28;20033;-74
2022/10/22 04:28:56;;;;;;;5.78;1.33;;;12.70;99.90;;;;;;5032964;28;20022;-75
2022/10/22 04:31:23;;;;;;;7.07;1.25;;;12.70;99.90;;;;;;5032906;28;20103;-75
2022/10/22 04:33:53;;;;;;;6.28;1.60;;;13.20;99.90;;;;;;5033133;28;20028;-74
2022/10/22 04:36:19;;;;;;;3.13;1.42;;;12.70;99.90;;;;;;5032936;28;20492;-75
2022/10/22 04:38:50;;;;;;;4.00;1.20;;;12.70;99.90;;;;;;5031678;28;20018;-75
2022/10/22 04:41:19;;;;;;;6.15;1.33;;;12.70;99.90;;;;;;5032976;28;20030;-75
2022/10/22 04:43:45;;;;;;;5.50;0.70;;;12.70;99.90;;;;;;5032932;28;20030;-75
2022/10/22 04:46:12;;;;;;;3.78;1.10;;;12.70;99.90;;;;;;5031682;28;20507;-75
2022/10/22 04:48:39;;;;;;;7.82;1.38;;;12.80;99.90;;;;;;5032703;28;20029;-74
2022/10/22 04:51:06;;;;;;;6.90;0.75;;;12.70;99.90;;;;;;5033805;28;20488;-75
2022/10/22 04:53:34;;;;;;;4.10;0.90;;;12.80;99.90;;;;;;5036595;28;20504;-75
2022/10/22 04:56:12;;;;;;;7.60;1.60;;;12.80;99.90;;;;;;5036517;28;20017;-75
2022/10/22 04:58:38;;;;;;;4.18;0.90;;;12.80;99.90;;;;;;5037333;28;20259;-75
2022/10/22 05:01:18;;;;;;;5.60;1.02;;;12.80;99.90;;;;;;5035275;28;20021;-74
2022/10/22 05:03:45;;;;;;;7.57;1.17;;;12.80;99.90;;;;;;5037121;28;20143;-75
2022/10/22 05:06:12;;;;;;;8.80;1.27;;;12.80;99.90;;;;;;5036515;28;20487;-75
2022/10/22 05:08:38;;;;;;;5.28;0.85;;;12.80;99.90;;;;;;5036386;28;20559;-75
2022/10/22 05:11:14;;;;;;;6.43;1.05;;;12.80;99.90;;;;;;5035157;28;20113;-75
2022/10/22 05:13:40;;;;;;;4.25;0.73;;;12.70;99.90;;;;;;5036355;28;20107;-75
2022/10/22 05:16:07;;;;;;;3.25;0.88;;;12.70;99.90;;;;;;5035055;28;20496;-75
2022/10/22 05:18:35;;;;;;;7.57;1.10;;;12.70;99.90;;;;;;5036283;28;20366;-75
2022/10/22 05:21:01;;;;;;;5.30;0.68;;;12.90;99.90;;;;;;5036228;28;20025;-75
2022/10/22 05:23:27;;;;;;;7.00;0.65;;;12.70;99.90;;;;;;5036038;28;20388;-75
2022/10/22 05:25:52;;;;;;;3.70;0.70;;;12.60;99.90;;;;;;5036080;28;20037;-75
2022/10/22 05:28:18;;;;;;;14.48;0.98;;;12.60;99.90;;;;;;5034768;28;20370;-75
2022/10/22 05:30:55;;;;;;;6.10;1.13;;;12.60;99.90;;;;;;5036266;28;20384;-75
2022/10/22 05:33:21;;;;;;;13.07;0.70;;;12.60;99.90;;;;;;5035979;28;20028;-75
2022/10/22 05:35:50;;;;;;;4.03;0.90;;;12.60;99.90;;;;;;5034629;28;20033;-75
2022/10/22 05:38:16;;;;;;;7.32;0.77;;;12.60;99.90;;;;;;5035997;28;20492;-76
2022/10/22 05:40:43;;;;;;;11.27;1.52;;;12.60;99.90;;;;;;5035748;28;20026;-75
2022/10/22 05:43:09;;;;;;;5.60;0.85;;;12.60;99.90;;;;;;5035950;28;20025;-75
2022/10/22 05:45:39;;;;;;;6.15;0.68;;;12.60;99.90;;;;;;5035658;28;20033;-75
2022/10/22 05:48:05;;;;;;;6.45;0.45;;;12.70;99.90;;;;;;5035599;28;20492;-75
2022/10/22 05:50:31;;;;;;;6.90;1.10;;;12.70;99.90;;;;;;5035611;28;20485;-75
2022/10/22 05:52:57;;;;;;;4.13;0.32;;;12.60;99.90;;;;;;5035548;28;20021;-74
2022/10/22 05:55:25;;;;;;;6.57;0.80;;;12.60;99.90;;;;;;5035537;28;20404;-75
2022/10/22 05:57:51;;;;;;;7.70;0.68;;;12.70;99.90;;;;;;5034253;28;20068;-75
2022/10/22 06:00:17;;;;;;;3.65;0.40;;;;;;;;;;5035949;28;20029;-75
2022/10/22 06:02:49;;;;;;;11.50;1.02;;;12.70;99.90;;;;;;5034907;28;20075;-75
2022/10/22 06:05:15;;;;;;;4.85;0.85;;;12.80;99.90;;;;;;5034126;28;20064;-75
2022/10/22 06:07:41;;;;;;;8.07;0.60;;;12.70;99.90;;;;;;5035225;28;20037;-75
2022/10/22 06:10:19;;;;;;;4.82;0.30;;;12.80;99.90;;;;;;5035321;28;20060;-75
2022/10/22 06:12:46;;;;;;;2.77;0.10;;;12.80;99.90;;;;;;5035577;28;20026;-75
2022/10/22 06:15:14;;;;;;;9.10;1.13;;;12.80;99.90;;;;;;5035126;28;20268;-74
2022/10/22 06:17:50;;;;;;;10.37;0.97;;;12.80;99.90;;;;;;5035657;28;20481;-74
2022/10/22 06:20:16;;;;;;;6.45;1.13;;;12.80;99.90;;;;;;5035119;28;20028;-74
2022/10/22 06:22:41;;;;;;;5.38;0.65;;;12.80;99.90;;;;;;5035568;28;20420;-75
2022/10/22 06:25:07;;;;;;;3.70;0.43;;;12.90;99.90;;;;;;5035054;28;20365;-75
2022/10/22 06:27:34;;;;;;;4.78;0.28;;;12.90;99.90;;;;;;5034872;28;20112;-75
2022/10/22 06:30:00;;;;;;;9.82;1.10;;;12.90;99.90;;;;;;5034919;28;20398;-75
2022/10/22 06:32:25;;;;;;;8.60;0.90;;;12.90;99.90;;;;;;5034793;28;20025;-75
2022/10/22 06:34:51;;;;;;;7.15;0.45;;;12.90;99.90;;;;;;5034774;28;20155;-75
2022/10/22 06:37:17;;;;;;;4.20;0.47;;;12.90;99.90;;;;;;5034638;28;20056;-75
2022/10/22 06:39:42;;;;;;;5.80;0.57;;;13.70;99.90;;;;;;5033390;28;20032;-75
2022/10/22 06:42:08;;;;;;;6.60;1.35;;;13.00;99.90;;;;;;5034540;28;20027;-75
2022/10/22 06:44:33;;;;;;;4.65;0.68;;;12.90;99.90;;;;;;5033333;28;20030;-75
2022/10/22 06:46:59;;;;;;;12.27;1.08;;;13.00;99.90;;;;;;5033185;28;20467;-75
2022/10/22 06:49:24;;;;;;;4.40;0.55;;;13.00;99.90;;;;;;5034529;28;20076;-75
2022/10/22 06:51:51;;;;;;;8.25;0.28;;;13.10;99.90;;;;;;5034475;28;20025;-75
2022/10/22 06:54:17;;;;;;;6.28;1.05;;;13.10;99.90;;;;;;5033093;28;20036;-75
2022/10/22 06:56:43;;;;;;;8.05;0.30;;;13.20;99.90;;;;;;5034284;28;20033;-75
2022/10/22 06:59:08;;;;;;;5.35;0.28;;;13.20;99.90;;;;;;5032568;28;20030;-75
2022/10/22 07:01:35;;;;;;;6.25;0.98;;;13.30;99.90;;;;;;5034258;28;20090;-74
2022/10/22 07:04:01;;;;;;;3.92;0.50;;;13.80;99.90;;;;;;5033004;28;20029;-75
2022/10/22 07:06:30;;;;;;;4.43;1.30;;;13.40;99.90;;;;;;5034060;28;20036;-75
2022/10/22 07:08:58;;;;;;;5.85;0.63;;;13.50;99.90;;;;;;5034173;28;20041;-75
2022/10/22 07:11:41;;;;;;;7.03;0.30;;;13.60;99.90;;;;;;5034625;28;20025;-75
2022/10/22 07:14:08;;;;;;;2.78;0.20;;;13.60;99.90;;;;;;5033451;28;20029;-74
2022/10/22 07:16:33;;;;;;;8.52;0.73;;;13.70;99.90;;;;;;5032706;28;20028;-74
2022/10/22 07:19:00;;;;;;;9.50;0.82;;;13.80;99.90;;;;;;5033986;28;20051;-74
2022/10/22 07:21:26;;;;;;;7.35;0.88;;;13.90;99.90;;;;;;5032752;28;20025;-74
2022/10/22 07:23:52;;;;;;;6.20;0.57;;;;;;;;;;5033907;28;20484;-74
2022/10/22 07:26:21;;;;;;;5.97;0.30;;;14.10;99.90;;;;;;5034348;28;20096;-74
2022/10/22 07:28:47;;;;;;;3.08;0.25;;;14.10;99.90;;;;;;5033690;28;20108;-74
2022/10/22 07:31:14;;;;;;;4.22;0.17;;;14.20;99.90;;;;;;5032540;28;20037;-74
2022/10/22 07:33:39;;;;;;;3.03;0.55;;;14.20;99.90;;;;;;5033746;28;20022;-75
2022/10/22 07:36:08;;;;;;;5.78;0.40;;;14.30;99.90;;;;;;5034240;28;20079;-75
2022/10/22 07:38:34;;;;;;;6.80;0.20;;;14.40;99.90;;;;;;5033815;28;20477;-75
2022/10/22 07:41:01;;;;;;;3.33;0.43;;;14.50;99.90;;;;;;5033627;28;20477;-74
2022/10/22 07:43:27;;;;;;;4.88;0.30;;;14.50;99.90;;;;;;5033515;28;20095;-74
2022/10/22 07:45:54;;;;;;;0.93;0.15;;;14.50;99.90;;;;;;5033526;28;20472;-74
2022/10/22 07:48:21;;;;;;;5.35;0.20;;;14.70;99.90;;;;;;5027708;22;20530;-78
2022/10/22 07:50:49;;;;;;;6.28;0.32;;;14.60;99.90;;;;;;5015204;28;20026;-78
2022/10/22 07:53:15;;;;;;;7.47;0.68;;;14.60;99.90;;;;;;5014345;28;20034;-77
2022/10/22 07:55:41;;;;;;;11.45;0.08;;;14.70;99.90;;;;;;5014399;28;20018;-77
2022/10/22 07:58:06;;;;;;;4.43;0.68;;;14.70;99.90;;;;;;4996561;28;20033;-77
2022/10/22 08:00:32;;;;;;;4.32;0.05;;;14.80;99.90;;;;;;5013805;28;20026;-77
2022/10/22 08:02:57;;;;;;;8.52;0.68;;;14.80;99.90;;;;;;4997312;28;20026;-78
2022/10/22 08:05:23;;;;;;;4.15;0.15;;;14.90;99.90;;;;;;5015488;28;20025;-78
2022/10/22 08:07:49;;;;;;;5.68;0.38;;;15.00;99.90;;;;;;5016807;28;20109;-78
2022/10/22 08:10:14;;;;;;;5.20;0.40;;;15.10;99.90;;;;;;5016782;28;20054;-78
2022/10/22 08:12:40;;;;;;;7.25;0.30;;;15.10;99.90;;;;;;5015852;28;20026;-78
2022/10/22 08:15:06;;;;;;;5.28;0.38;;;15.00;99.90;;;;;;4998477;28;20108;-78
2022/10/22 08:17:32;;;;;;;5.28;0.77;;;15.10;99.90;;;;;;4998138;28;20064;-78
2022/10/22 08:19:58;;;;;;;5.80;0.10;;;15.00;99.90;;;;;;4998092;28;20476;-78
2022/10/22 08:22:23;;;;;;;6.57;0.40;;;15.00;99.90;;;;;;4998874;28;20075;-78
2022/10/22 08:24:49;;;;;;;8.65;0.50;;;15.10;99.90;;;;;;5016483;28;20026;-78
2022/10/22 08:27:15;;;;;;;8.23;0.50;;;15.10;99.90;;;;;;5019513;28;20033;-78
2022/10/22 08:29:40;;;;;;;8.20;0.50;;;15.10;99.90;;;;;;5001955;28;20385;-78
2022/10/22 08:32:06;;;;;;;4.80;0.93;;;15.10;99.90;;;;;;5019024;28;20053;-78
2022/10/22 08:34:32;;;;;;;4.15;0.10;;;15.10;99.90;;;;;;5002280;28;20022;-78
2022/10/22 08:36:57;;;;;;;1.88;0.15;;;15.10;99.90;;;;;;5019272;28;20034;-78
2022/10/22 08:39:23;;;;;;;3.90;0.10;;;15.10;99.90;;;;;;5000596;28;20022;-76
2022/10/22 08:41:51;;;;;;;1.85;0.40;;;15.20;99.90;;;;;;5017101;28;20053;-75
2022/10/22 08:44:33;;;;;;;7.78;0.32;;;15.20;99.90;;;;;;5017000;28;20030;-76
2022/10/22 08:47:16;;;;;;;6.15;0.77;;;15.30;99.90;;;;;;5017191;28;20041;-77
2022/10/22 08:49:42;;;;;;;6.40;0.10;;;15.30;99.90;;;;;;5017004;28;20032;-75
2022/10/22 08:52:17;;;;;;;3.65;0.30;;;15.30;99.90;;;;;;5017020;28;20453;-76
2022/10/22 08:54:48;;;;;;;2.22;0.03;;;15.30;99.90;;;;;;5016967;28;20021;-75
2022/10/22 08:57:28;;;;;;;5.63;0.65;;;15.20;99.90;;;;;;4999045;28;20061;-75
2022/10/22 09:00:13;;;;;;;3.00;0.10;;;15.30;99.90;;;;;;4999119;28;20033;-75
2022/10/22 09:03:11;;;;;;;9.32;0.45;;;15.30;99.90;;;;;;5014248;28;20026;-76
2022/10/22 09:05:58;;;;;;;13.02;1.17;;;15.30;99.90;;;;;;5016092;28;20033;-75
2022/10/22 09:08:24;;;;;;;7.22;0.15;;;15.50;99.90;;;;;;4999035;28;20018;-75
2022/10/22 09:10:55;;;;;;;6.90;0.45;;;15.50;99.90;;;;;;5016626;28;20026;-75
2022/10/22 09:13:22;;;;;;;4.30;0.35;;;15.60;99.90;;;;;;5016615;28;20022;-75
2022/10/22 09:15:57;;;;;;;4.40;0.55;;;15.70;99.90;;;;;;4998783;28;20030;-75
2022/10/22 09:19:00;;;;;;;5.72;0.63;;;15.80;99.90;;;;;;5016375;28;20393;-75
2022/10/22 09:21:47;;;;;;;6.07;0.52;;;16.00;99.90;;;;;;5017155;28;20061;-77
2022/10/22 09:24:16;;;;;;;6.38;0.65;;;16.00;99.90;;;;;;4998678;28;20030;-76
2022/10/22 09:26:41;;;;;;;7.20;0.13;;;16.00;99.90;;;;;;4998593;28;20560;-76
2022/10/22 09:29:17;;;;;;;13.30;1.27;;;16.10;99.90;;;;;;5017012;28;20108;-77
2022/10/22 09:31:42;;;;;;;5.40;0.38;;;16.20;99.90;;;;;;5017025;28;20411;-75
2022/10/22 09:34:08;;;;;;;3.85;0.43;;;16.20;99.90;;;;;;4998469;28;20071;-76
2022/10/22 09:36:34;;;;;;;8.88;0.70;;;16.20;99.90;;;;;;4997731;28;20075;-75
2022/10/22 09:39:00;;;;;;;5.05;0.15;;;16.20;99.90;;;;;;5016171;28;20408;-75
2022/10/22 09:41:31;;;;;;;4.00;0.75;;;16.30;99.90;;;;;;5016931;28;20049;-81
2022/10/22 09:43:58;;;;;;;4.32;0.95;;;16.50;99.90;;;;;;4998701;28;20025;-76
2022/10/22 09:46:28;;;;;;;12.20;0.85;;;16.60;99.90;;;;;;4998628;28;20029;-76
2022/10/22 09:49:00;;;;;;;7.43;0.35;;;16.70;99.90;;;;;;5016696;28;20038;-76
2022/10/22 09:51:41;;;;;;;4.40;0.10;;;16.70;99.90;;;;;;5016186;28;20025;-75
2022/10/22 09:54:14;;;;;;;5.45;0.82;;;16.70;99.90;;;;;;5015942;28;20026;-77
2022/10/22 09:56:40;;;;;;;2.67;0.20;;;16.60;99.90;;;;;;4998262;28;20026;-76
2022/10/22 09:59:15;;;;;;;6.20;0.85;;;16.80;99.90;;;;;;5015726;28;20444;-72
2022/10/22 10:01:41;;;;;;;4.50;0.22;;;16.80;99.90;;;;;;4997951;28;20025;-72
2022/10/22 10:04:10;;;;;;;8.13;0.38;;;16.80;99.90;;;;;;5015489;28;20026;-72
2022/10/22 10:06:39;;;;;;;7.40;0.63;;;16.70;99.90;;;;;;4997845;28;20025;-73
2022/10/22 10:09:16;;;;;;;10.32;0.20;;;16.60;99.90;;;;;;4997893;28;20041;-73
2022/10/22 10:12:02;;;;;;;3.83;0.85;;;16.70;99.90;;;;;;4997767;28;20033;-73
2022/10/22 10:14:51;;;;;;;6.10;0.30;;;16.70;99.90;;;;;;5015784;28;20044;-73
2022/10/22 10:17:36;;;;;;;5.25;0.35;;;16.80;99.90;;;;;;5015698;28;20026;-73
2022/10/22 10:20:23;;;;;;;5.55;0.35;;;16.80;99.90;;;;;;4997613;28;20041;-73
2022/10/22 10:23:33;;;;;;;5.40;0.50;;;16.80;99.90;;;;;;5015462;28;20048;-73
2022/10/22 10:26:19;;;;;;;2.67;0.10;;;16.80;99.90;;;;;;4935579;29;20052;-73
2022/10/22 10:29:02;;;;;;;7.22;0.30;;;16.80;99.90;;;;;;5014960;28;20033;-73
2022/10/22 10:31:45;;;;;;;5.68;0.55;;;16.80;99.90;;;;;;4997301;28;20044;-73
2022/10/22 10:34:41;;;;;;;7.03;0.32;;;16.80;99.90;;;;;;4997691;28;20443;-73
2022/10/22 10:37:21;;;;;;;4.05;0.55;;;16.80;99.90;;;;;;4997760;28;20053;-73
2022/10/22 10:40:17;;;;;;;2.90;0.50;;;16.90;99.90;;;;;;4997216;28;20030;-73
2022/10/22 10:43:08;;;;;;;5.07;0.20;;;16.90;99.90;;;;;;4997105;28;20480;-73
2022/10/22 10:45:57;;;;;;;4.07;0.35;;;16.80;99.90;;;;;;5014657;28;20075;-73
2022/10/22 10:48:29;;;;;;;6.20;0.43;;;16.80;99.90;;;;;;5013675;28;20034;-73
2022/10/22 10:51:14;;;;;;;5.70;0.32;;;16.70;99.90;;;;;;5014547;28;20037;-73
2022/10/22 10:54:17;;;;;;;5.93;0.63;;;16.80;99.90;;;;;;4996870;28;20030;-72
2022/10/22 10:57:15;;;;;;;6.93;0.40;;;16.90;99.90;;;;;;5014823;28;20034;-72
2022/10/22 10:59:49;;;;;;;4.03;0.45;;;17.00;99.90;;;;;;5015041;28;20140;-73
2022/10/22 11:02:33;;;;;;;5.50;1.35;;;17.40;99.90;;;;;;5014402;28;20417;-73
2022/10/22 11:05:21;;;;;;;11.43;0.90;;;17.50;99.90;;;;;;5014876;28;20029;-73
2022/10/22 11:08:14;;;;;;;9.18;0.30;;;17.50;99.90;;;;;;5014989;28;20026;-73
2022/10/22 11:10:49;;;;;;;4.55;0.70;;;17.50;99.90;;;;;;5014464;28;20054;-73
2022/10/22 11:13:17;;;;;;;5.65;0.10;;;17.70;99.90;;;;;;5014120;28;20022;-73
2022/10/22 11:15:49;;;;;;;6.22;0.38;;;17.80;99.90;;;;;;5014142;28;20033;-75
2022/10/22 11:18:40;;;;;;;6.68;0.77;;;18.00;99.90;;;;;;5014562;28;20034;-73
2022/10/22 11:21:17;;;;;;;3.15;0.20;;;17.90;99.90;;;;;;5014715;28;20014;-73
2022/10/22 11:23:49;;;;;;;5.30;0.30;;;17.90;99.90;;;;;;4996527;28;20481;-73
2022/10/22 11:26:28;;;;;;;6.47;0.57;;;17.90;99.90;;;;;;4996522;28;20054;-72
2022/10/22 11:28:54;;;;;;;;;;;18.00;99.90;;;;;;5015044;28;20431;-72
2022/10/22 11:31:24;;;;;;;11.68;0.90;;;18.10;99.90;;;;;;5014061;28;19906;-73
2022/10/22 11:34:17;;;;;;;3.58;0.65;;;18.30;99.90;;;;;;5013862;28;20112;-73
2022/10/22 11:36:44;;;;;;;8.77;0.45;;;18.60;99.90;;;;;;5013695;28;20029;-73
2022/10/22 11:39:36;;;;;;;11.02;0.90;;;18.70;99.90;;;;;;5013652;28;20034;-72
2022/10/22 11:42:09;;;;;;;2.30;0.10;;;18.80;99.90;;;;;;5013577;28;20392;-73
2022/10/22 11:45:06;;;;;;;7.60;0.47;;;18.40;99.90;;;;;;4997179;28;20453;-75
2022/10/22 11:47:52;;;;;;;11.43;0.38;;;18.10;99.90;;;;;;5012758;28;20148;-74
2022/10/22 11:50:21;;;;;;;5.28;0.00;;;17.70;99.90;;;;;;4996148;28;20515;-74
2022/10/22 11:53:01;;;;;;;3.78;0.32;;;17.70;99.90;;;;;;4996283;28;20445;-75
2022/10/22 11:55:49;;;;;;;8.63;0.65;;;17.60;99.90;;;;;;5013949;28;20030;-76
2022/10/22 11:58:38;;;;;;;7.95;1.08;;;17.60;99.90;;;;;;5013366;28;20052;-76
2022/10/22 12:01:09;;;;;;;;;;;17.70;99.90;;;;;;5013507;28;20022;-76
2022/10/22 12:03:42;;;;;;;3.80;0.57;;;17.70;99.90;;;;;;5014066;28;19956;-75
2022/10/22 12:06:11;;;;;;;57.60;29.65;;;17.70;99.90;;;;;;5013927;28;20033;-75
2022/10/22 12:08:51;;;;;;;;;;;17.60;99.90;;;;;;5013656;28;20033;-76
2022/10/22 12:11:35;;;;;;;12.65;1.63;;;17.60;99.90;;;;;;5013277;28;19912;-76
2022/10/22 12:14:18;;;;;;;13.95;2.60;;;17.60;99.90;;;;;;5013402;28;20050;-76
2022/10/22 12:16:45;;;;;;;4.68;0.50;;;17.60;99.90;;;;;;4995570;28;20030;-76
2022/10/22 12:19:17;;;;;;;8.23;1.05;;;17.70;99.90;;;;;;4995710;28;20029;-75
2022/10/22 12:21:47;;;;;;;6.57;0.63;;;17.90;99.90;;;;;;5013367;28;20030;-75
2022/10/22 12:24:17;;;;;;;6.43;0.22;;;17.90;99.90;;;;;;4995750;28;20018;-75
2022/10/22 12:26:48;;;;;;;12.52;0.80;;;17.80;99.90;;;;;;5013426;28;20025;-75
2022/10/22 12:29:16;;;;;;;12.57;0.65;;;18.00;99.90;;;;;;4995868;28;20412;-75
2022/10/22 12:31:43;;;;;;;8.00;0.63;;;18.50;99.90;;;;;;5013648;28;20030;-75
2022/10/22 12:34:14;;;;;;;5.43;0.30;;;19.00;99.90;;;;;;5013325;28;20018;-75
2022/10/22 12:36:40;;;;;;;10.15;0.70;;;19.40;99.90;;;;;;5013097;28;20025;-75
2022/10/22 12:39:14;;;;;;;3.92;0.50;;;19.40;99.90;;;;;;5013775;28;20040;-75
2022/10/22 12:41:41;;;;;;;10.20;0.47;;;19.50;99.90;;;;;;5013143;28;20072;-74
2022/10/22 12:44:10;;;;;;;5.60;0.50;;;19.80;99.90;;;;;;5012812;28;20544;-74
2022/10/22 12:46:35;;;;;;;4.55;0.00;;;20.10;99.90;;;;;;4995231;28;20113;-75
2022/10/22 12:49:05;;;;;;;5.50;0.30;;;20.20;99.90;;;;;;5013211;28;20467;-75
2022/10/22 12:51:31;;;;;;;8.95;0.52;;;20.10;99.90;;;;;;4995591;28;20018;-74
2022/10/22 12:54:08;;;;;;;7.72;0.30;;;20.20;99.90;;;;;;4995498;28;20137;-75
2022/10/22 12:56:35;;;;;;;5.90;0.50;;;20.20;99.90;;;;;;5013631;28;20381;-74
2022/10/22 12:59:06;;;;;;;8.18;0.95;;;20.40;99.90;;;;;;5013091;28;20018;-74
2022/10/22 13:01:36;;;;;;;8.65;0.40;;;20.40;99.90;;;;;;4995503;28;20018;-74
2022/10/22 13:04:25;;;;;;;4.72;0.40;;;20.70;99.90;;;;;;5012942;28;20022;-75
2022/10/22 13:07:11;;;;;;;4.38;0.20;;;20.90;99.90;;;;;;4985426;28;20038;-75
2022/10/22 13:09:39;;;;;;;5.82;0.45;;;20.80;99.90;;;;;;4999126;28;20038;-76